createdAt,value
2018-09-04T00:02:06.496Z,36.73
2018-09-04T00:04:33.732Z,41.70
2018-09-04T00:07:00.972Z,40.80
2018-09-04T00:09:28.252Z,38.90
2018-09-04T00:11:55.400Z,40.03
2018-09-04T00:14:22.572Z,36.73
2018-09-04T00:16:49.772Z,35.93
2018-09-04T00:19:16.907Z,39.90
2018-09-04T00:21:44.124Z,43.73
2018-09-04T00:24:11.284Z,40.83
2018-09-04T00:26:38.483Z,40.27
2018-09-04T00:29:05.668Z,39.33
2018-09-04T00:31:32.927Z,43.57
2018-09-04T00:34:00.109Z,39.33
2018-09-04T00:36:27.288Z,45.50
2018-09-04T00:38:54.465Z,42.37
2018-09-04T00:41:21.573Z,46.40
2018-09-04T00:43:48.759Z,43.63
2018-09-04T00:46:15.936Z,43.87
2018-09-04T00:48:43.156Z,48.67
2018-09-04T00:51:10.357Z,50.00
2018-09-04T00:56:11.452Z,45.50
2018-09-04T00:58:38.589Z,48.07
2018-09-04T01:01:05.781Z,51.90
2018-09-04T01:03:32.974Z,49.97
2018-09-04T01:06:00.116Z,52.53
2018-09-04T01:08:28.156Z,50.13
2018-09-04T01:10:55.418Z,47.47
2018-09-04T01:13:22.564Z,49.50
2018-09-04T01:15:49.820Z,45.60
2018-09-04T01:18:16.977Z,50.03
2018-09-04T01:20:44.125Z,41.40
2018-09-04T01:23:11.360Z,51.13
2018-09-04T01:25:38.992Z,44.43
2018-09-04T01:28:06.940Z,46.20
2018-09-04T01:30:34.105Z,48.10
2018-09-04T01:33:01.292Z,42.83
2018-09-04T01:35:28.503Z,43.20
2018-09-04T01:37:55.761Z,40.50
2018-09-04T01:40:22.900Z,41.70
2018-09-04T01:42:50.045Z,44.17
2018-09-04T01:45:17.200Z,43.03
2018-09-04T01:47:44.322Z,39.87
2018-09-04T01:50:11.492Z,39.93
2018-09-04T01:52:38.616Z,43.23
2018-09-04T01:55:05.784Z,44.97
2018-09-04T01:57:32.919Z,44.83
2018-09-04T02:00:00.073Z,51.60
2018-09-04T02:02:27.280Z,49.03
2018-09-04T02:04:54.459Z,46.57
2018-09-04T02:07:21.641Z,46.30
2018-09-04T02:09:48.752Z,47.07
2018-09-04T02:12:15.936Z,54.30
2018-09-04T02:14:43.103Z,55.50
2018-09-04T02:17:10.327Z,56.93
2018-09-04T02:19:37.502Z,53.87
2018-09-04T02:22:04.905Z,53.83
2018-09-04T02:24:32.204Z,56.57
2018-09-04T02:26:59.340Z,62.00
2018-09-04T02:29:26.491Z,50.73
2018-09-04T02:31:53.720Z,59.47
2018-09-04T02:34:20.852Z,45.90
2018-09-04T02:36:47.961Z,54.60
2018-09-04T02:39:15.180Z,50.43
2018-09-04T02:41:42.360Z,48.23
2018-09-04T02:44:09.683Z,53.53
2018-09-04T02:46:37.257Z,55.30
2018-09-04T02:49:04.980Z,52.30
2018-09-04T02:51:32.081Z,52.00
2018-09-04T02:53:59.272Z,47.63
2018-09-04T02:56:26.414Z,49.90
2018-09-04T02:58:53.780Z,47.83
2018-09-04T03:01:20.900Z,53.80
2018-09-04T03:03:48.054Z,52.80
2018-09-04T03:06:15.288Z,52.63
2018-09-04T03:08:42.441Z,53.47
2018-09-04T03:11:09.612Z,49.27
2018-09-04T03:13:36.937Z,51.53
2018-09-04T03:16:04.051Z,54.23
2018-09-04T03:18:31.299Z,52.40
2018-09-04T03:20:58.544Z,58.60
2018-09-04T03:23:25.778Z,54.27
2018-09-04T03:25:53.033Z,58.70
2018-09-04T03:28:20.201Z,54.17
2018-09-04T03:30:47.421Z,57.20
2018-09-04T03:33:14.688Z,58.20
2018-09-04T03:35:41.777Z,59.73
2018-09-04T03:38:08.904Z,62.67
2018-09-04T03:40:36.165Z,51.90
2018-09-04T03:43:03.340Z,57.00
2018-09-04T03:45:30.502Z,49.40
2018-09-04T03:47:57.716Z,56.37
2018-09-04T03:50:24.864Z,59.00
2018-09-04T03:52:52.093Z,56.40
2018-09-04T03:55:19.241Z,52.03
2018-09-04T03:57:46.356Z,55.40
2018-09-04T04:00:13.660Z,58.23
2018-09-04T04:02:41.026Z,50.43
2018-09-04T04:05:08.173Z,52.10
2018-09-04T04:07:35.429Z,53.23
2018-09-04T04:10:02.545Z,55.80
2018-09-04T04:12:29.692Z,64.03
2018-09-04T04:14:56.868Z,51.47
2018-09-04T04:17:24.059Z,56.80
2018-09-04T04:19:51.327Z,50.67
2018-09-04T04:22:18.507Z,49.00
2018-09-04T04:24:45.624Z,56.43
2018-09-04T04:27:12.911Z,56.87
2018-09-04T04:29:40.096Z,56.80
2018-09-04T04:32:07.250Z,56.73
2018-09-04T04:34:34.477Z,60.07
2018-09-04T04:37:01.638Z,61.47
2018-09-04T04:39:28.748Z,61.87
2018-09-04T04:41:56.052Z,64.97
2018-09-04T04:44:23.149Z,65.93
2018-09-04T04:46:50.335Z,60.70
2018-09-04T04:49:17.461Z,60.10
2018-09-04T04:51:44.636Z,56.17
2018-09-04T04:54:11.844Z,64.23
2018-09-04T04:56:38.964Z,64.80
2018-09-04T04:59:06.192Z,61.90
2018-09-04T05:01:33.431Z,55.77
2018-09-04T05:04:00.650Z,52.63
2018-09-04T05:06:27.819Z,57.37
2018-09-04T05:08:54.912Z,56.67
2018-09-04T05:11:22.112Z,65.53
2018-09-04T05:13:49.376Z,65.80
2018-09-04T05:16:17.320Z,63.50
2018-09-04T05:18:44.459Z,59.87
2018-09-04T05:21:11.593Z,66.67
2018-09-04T05:23:38.748Z,67.00
2018-09-04T05:26:05.916Z,67.73
2018-09-04T05:28:33.057Z,65.97
2018-09-04T05:31:00.256Z,67.13
2018-09-04T05:33:31.375Z,72.10
2018-09-04T05:35:58.873Z,65.87
2018-09-04T05:38:25.980Z,69.97
2018-09-04T05:40:53.117Z,66.70
2018-09-04T05:43:56.364Z,61.20
2018-09-04T05:46:57.229Z,70.97
2018-09-04T05:49:27.719Z,71.73
2018-09-04T05:51:54.859Z,66.13
2018-09-04T05:54:22.093Z,68.57
2018-09-04T05:56:49.186Z,66.40
2018-09-04T05:59:16.699Z,59.00
2018-09-04T06:01:43.913Z,63.10
2018-09-04T06:04:11.021Z,63.10
2018-09-04T06:06:38.248Z,69.73
2018-09-04T06:09:05.625Z,66.33
2018-09-04T06:11:32.757Z,59.00
2018-09-04T06:13:59.936Z,70.03
2018-09-04T06:16:27.053Z,64.20
2018-09-04T06:18:54.229Z,63.07
2018-09-04T06:21:21.293Z,69.70
2018-09-04T06:23:48.437Z,67.80
2018-09-04T06:26:15.646Z,73.87
2018-09-04T06:28:42.793Z,67.27
2018-09-04T06:31:09.900Z,60.67
2018-09-04T06:33:37.118Z,71.90
2018-09-04T06:36:05.008Z,79.63
2018-09-04T06:38:32.188Z,71.80
2018-09-04T06:41:00.040Z,76.97
2018-09-04T06:43:27.183Z,76.77
2018-09-04T06:45:54.294Z,77.77
2018-09-04T06:48:21.493Z,76.67
2018-09-04T06:50:48.672Z,76.30
2018-09-04T06:53:15.987Z,68.30
2018-09-04T06:55:43.202Z,62.37
2018-09-04T06:58:10.365Z,67.73
2018-09-04T07:00:37.577Z,76.93
2018-09-04T07:03:04.768Z,70.57
2018-09-04T07:05:31.955Z,61.30
2018-09-04T07:07:59.078Z,71.40
2018-09-04T07:10:26.223Z,70.23
2018-09-04T07:12:53.357Z,79.03
2018-09-04T07:15:20.557Z,74.83
2018-09-04T07:17:47.665Z,72.97
2018-09-04T07:20:14.849Z,78.80
2018-09-04T07:22:41.980Z,75.23
2018-09-04T07:25:09.133Z,76.27
2018-09-04T07:27:36.289Z,71.57
2018-09-04T07:30:04.721Z,74.97
2018-09-04T07:32:31.873Z,71.63
2018-09-04T07:34:58.996Z,76.37
2018-09-04T07:37:26.135Z,77.50
2018-09-04T07:39:53.280Z,68.30
2018-09-04T07:42:20.445Z,74.97
2018-09-04T07:44:47.593Z,72.37
2018-09-04T07:47:14.803Z,72.20
2018-09-04T07:49:42.080Z,75.77
2018-09-04T07:52:09.173Z,66.90
2018-09-04T07:54:36.360Z,77.70
2018-09-04T07:57:03.539Z,69.73
2018-09-04T07:59:30.892Z,74.60
2018-09-04T08:01:58.165Z,68.93
2018-09-04T08:04:25.332Z,69.33
2018-09-04T08:06:52.458Z,67.67
2018-09-04T08:09:19.709Z,73.57
2018-09-04T08:11:46.908Z,68.63
2018-09-04T08:14:14.136Z,63.37
2018-09-04T08:16:41.319Z,66.17
2018-09-04T08:19:08.465Z,66.93
2018-09-04T08:21:36.072Z,67.20
2018-09-04T08:24:07.648Z,62.00
2018-09-04T08:26:34.802Z,63.97
2018-09-04T08:29:02.132Z,67.00
2018-09-04T08:31:29.289Z,66.70
2018-09-04T08:33:56.639Z,69.03
2018-09-04T08:36:23.790Z,63.30
2018-09-04T08:38:51.517Z,63.13
2018-09-04T08:41:19.125Z,62.20
2018-09-04T08:43:46.568Z,58.73
2018-09-04T08:46:13.720Z,58.30
2018-09-04T08:48:40.950Z,54.00
2018-09-04T08:51:08.054Z,55.00
2018-09-04T08:53:35.262Z,55.60
2018-09-04T08:56:02.307Z,52.63
2018-09-04T08:58:29.541Z,55.60
2018-09-04T09:00:56.881Z,52.10
2018-09-04T09:03:24.249Z,55.63
2018-09-04T09:05:51.689Z,53.03
2018-09-04T09:08:18.845Z,52.00
2018-09-04T09:10:45.993Z,51.53
2018-09-04T09:13:13.132Z,49.63
2018-09-04T09:15:40.453Z,55.03
2018-09-04T09:18:07.592Z,53.20
2018-09-04T09:20:34.860Z,54.90
2018-09-04T09:23:02.078Z,52.00
2018-09-04T09:25:29.212Z,51.17
2018-09-04T09:27:56.485Z,52.90
2018-09-04T09:30:23.645Z,49.17
2018-09-04T09:32:50.812Z,47.30
2018-09-04T09:35:18.198Z,42.00
2018-09-04T09:37:45.273Z,46.37
2018-09-04T09:40:12.592Z,47.80
2018-09-04T09:42:39.952Z,51.20
2018-09-04T09:45:07.194Z,47.40
2018-09-04T09:47:38.915Z,44.20
2018-09-04T09:50:06.059Z,45.90
2018-09-04T09:52:33.298Z,44.77
2018-09-04T09:55:00.425Z,40.20
2018-09-04T09:57:27.565Z,49.57
2018-09-04T09:59:54.814Z,46.67
2018-09-04T10:02:26.489Z,43.90
2018-09-04T10:04:53.796Z,41.13
2018-09-04T10:07:20.952Z,45.97
2018-09-04T10:09:48.145Z,39.10
2018-09-04T10:12:15.447Z,45.73
2018-09-04T10:14:42.582Z,40.50
2018-09-04T10:17:09.909Z,38.40
2018-09-04T10:19:37.108Z,38.63
2018-09-04T10:22:04.516Z,34.50
2018-09-04T10:24:31.748Z,36.50
2018-09-04T10:26:58.914Z,33.97
2018-09-04T10:29:26.408Z,34.00
2018-09-04T10:31:53.563Z,36.80
2018-09-04T10:34:20.738Z,33.20
2018-09-04T10:36:47.846Z,35.07
2018-09-04T10:39:21.321Z,36.13
2018-09-04T10:41:48.433Z,33.60
2018-09-04T10:44:15.812Z,33.80
2018-09-04T10:46:42.941Z,31.93
2018-09-04T10:49:10.133Z,33.77
2018-09-04T10:51:37.365Z,34.93
2018-09-04T10:54:04.899Z,34.10
2018-09-04T10:56:32.108Z,33.83
2018-09-04T10:58:59.292Z,35.13
2018-09-04T11:01:26.539Z,34.97
2018-09-04T11:03:53.766Z,35.77
2018-09-04T11:06:21.080Z,38.73
2018-09-04T11:08:48.259Z,38.13
2018-09-04T11:11:15.440Z,33.07
2018-09-04T11:13:42.616Z,36.63
2018-09-04T11:16:09.808Z,38.33
2018-09-04T11:18:37.005Z,34.10
2018-09-04T11:21:04.260Z,44.83
2018-09-04T11:23:38.272Z,37.17
2018-09-04T11:26:05.493Z,35.37
2018-09-04T11:28:34.789Z,33.97
2018-09-04T11:31:01.894Z,37.00
2018-09-04T11:33:29.069Z,34.17
2018-09-04T11:35:56.282Z,29.87
2018-09-04T11:38:23.435Z,31.07
2018-09-04T11:40:50.724Z,28.63
2018-09-04T11:43:17.836Z,32.13
2018-09-04T11:45:44.994Z,32.30
2018-09-04T11:48:15.119Z,30.63
2018-09-04T11:50:42.745Z,30.97
2018-09-04T11:53:09.833Z,32.60
2018-09-04T11:55:37.010Z,30.10
2018-09-04T11:58:11.071Z,29.67
2018-09-04T12:00:44.353Z,28.90
2018-09-04T12:03:12.764Z,29.03
2018-09-04T12:05:39.991Z,28.63
2018-09-04T12:08:07.138Z,30.20
2018-09-04T12:10:34.571Z,26.43
2018-09-04T12:13:08.614Z,26.27
2018-09-04T12:15:39.629Z,29.23
2018-09-04T12:18:07.433Z,29.20
2018-09-04T12:20:41.768Z,25.23
2018-09-04T12:23:09.270Z,25.17
2018-09-04T12:25:36.661Z,27.33
2018-09-04T12:28:04.047Z,27.93
2018-09-04T12:30:31.330Z,29.30
2018-09-04T12:32:59.607Z,27.50
2018-09-04T12:35:26.709Z,26.70
2018-09-04T12:37:53.940Z,24.80
2018-09-04T12:40:21.090Z,26.53
2018-09-04T12:42:48.346Z,24.40
2018-09-04T12:45:15.496Z,25.53
2018-09-04T12:47:42.619Z,24.37
2018-09-04T12:50:09.881Z,24.23
2018-09-04T12:52:36.997Z,26.07
2018-09-04T12:55:04.908Z,26.03
2018-09-04T12:57:39.065Z,23.80
2018-09-04T13:00:07.213Z,22.53
2018-09-04T13:02:34.337Z,26.33
2018-09-04T13:05:01.493Z,23.10
2018-09-04T13:07:28.648Z,22.60
2018-09-04T13:09:55.782Z,25.23
2018-09-04T13:12:22.920Z,23.60
2018-09-04T13:14:50.146Z,25.70
2018-09-04T13:17:17.473Z,25.13
2018-09-04T13:19:44.747Z,24.93
2018-09-04T13:22:11.910Z,25.07
2018-09-04T13:24:39.130Z,25.40
2018-09-04T13:27:06.332Z,24.63
2018-09-04T13:29:33.465Z,25.40
2018-09-04T13:32:00.624Z,24.50
2018-09-04T13:34:27.796Z,24.23
2018-09-04T13:36:55.033Z,23.27
2018-09-04T13:39:22.216Z,23.43
2018-09-04T13:41:49.408Z,25.07
2018-09-04T13:44:16.610Z,23.90
2018-09-04T13:46:43.776Z,25.77
2018-09-04T13:49:11.020Z,25.30
2018-09-04T13:51:38.257Z,25.50
2018-09-04T13:54:05.348Z,25.07
2018-09-04T13:56:32.572Z,24.33
2018-09-04T13:58:59.795Z,25.37
2018-09-04T14:01:26.980Z,24.40
2018-09-04T14:03:54.325Z,23.27
2018-09-04T14:06:21.474Z,26.43
2018-09-04T14:08:55.369Z,22.27
2018-09-04T14:11:22.631Z,24.77
2018-09-04T14:13:49.811Z,26.17
2018-09-04T14:16:19.076Z,24.77
2018-09-04T14:18:46.372Z,23.17
2018-09-04T14:21:13.585Z,23.67
2018-09-04T14:23:40.727Z,23.90
2018-09-04T14:26:07.979Z,23.67
2018-09-04T14:28:42.041Z,24.00
2018-09-04T14:31:02.609Z,23.17
2018-09-04T14:33:29.855Z,23.07
2018-09-04T14:35:57.020Z,23.10
2018-09-04T14:38:24.204Z,23.63
2018-09-04T14:40:51.395Z,22.20
2018-09-04T14:43:18.520Z,23.10
2018-09-04T14:45:45.832Z,21.17
2018-09-04T14:48:13.315Z,22.80
2018-09-04T14:50:40.496Z,22.30
2018-09-04T14:53:08.077Z,22.27
2018-09-04T14:55:35.261Z,21.67
2018-09-04T14:58:02.369Z,23.27
2018-09-04T15:00:29.545Z,23.30
2018-09-04T15:02:56.701Z,27.80
2018-09-04T15:05:23.862Z,21.83
2018-09-04T15:07:51.212Z,20.60
2018-09-04T15:10:18.337Z,22.20
2018-09-04T15:12:45.530Z,21.80
2018-09-04T15:15:12.769Z,20.80
2018-09-04T15:17:40.001Z,22.87
2018-09-04T15:20:14.117Z,28.20
2018-09-04T15:22:41.260Z,21.53
2018-09-04T15:25:08.470Z,23.10
2018-09-04T15:27:35.669Z,20.93
2018-09-04T15:30:03.036Z,20.87
2018-09-04T15:32:30.257Z,21.07
2018-09-04T15:34:57.485Z,21.70
2018-09-04T15:37:24.647Z,21.87
2018-09-04T15:39:51.818Z,21.53
2018-09-04T15:42:18.941Z,22.57
2018-09-04T15:44:46.109Z,24.30
2018-09-04T15:47:13.394Z,21.77
2018-09-04T15:49:45.595Z,21.63
2018-09-04T15:52:13.236Z,22.80
2018-09-04T15:54:40.404Z,22.73
2018-09-04T15:57:07.636Z,23.17
2018-09-04T15:59:34.811Z,23.63
2018-09-04T16:02:02.028Z,25.60
2018-09-04T16:04:29.243Z,23.60
2018-09-04T16:06:56.488Z,25.30
2018-09-04T16:09:30.413Z,24.77
2018-09-04T16:11:57.882Z,28.90
2018-09-04T16:14:25.088Z,33.40
2018-09-04T16:16:52.232Z,28.47
2018-09-04T16:19:19.531Z,28.53
2018-09-04T16:21:46.684Z,29.10
2018-09-04T16:24:13.910Z,31.97
2018-09-04T16:26:41.244Z,29.73
2018-09-04T16:29:08.397Z,31.20
2018-09-04T16:31:35.575Z,29.83
2018-09-04T16:34:02.717Z,30.90
2018-09-04T16:36:29.873Z,31.30
2018-09-04T16:38:57.057Z,29.87
2018-09-04T16:42:01.467Z,33.30
2018-09-04T16:44:28.644Z,33.03
2018-09-04T16:46:55.910Z,34.23
2018-09-04T16:49:25.593Z,32.20
2018-09-04T16:51:53.052Z,32.20
2018-09-04T16:54:21.477Z,32.63
2018-09-04T16:56:48.756Z,31.10
2018-09-04T16:59:15.896Z,32.00
2018-09-04T17:01:43.058Z,31.33
2018-09-04T17:04:10.311Z,31.27
2018-09-04T17:06:37.457Z,30.83
2018-09-04T17:09:05.297Z,31.47
2018-09-04T17:11:39.329Z,31.80
2018-09-04T17:14:06.955Z,33.70
2018-09-04T17:16:34.124Z,32.53
2018-09-04T17:19:01.340Z,31.53
2018-09-04T17:21:28.591Z,33.30
2018-09-04T17:23:55.947Z,33.20
2018-09-04T17:26:23.198Z,29.87
2018-09-04T17:28:50.377Z,29.17
2018-09-04T17:31:17.686Z,31.93
2018-09-04T17:33:44.837Z,31.07
2018-09-04T17:36:12.115Z,34.33
2018-09-04T17:38:39.316Z,34.83
2018-09-04T17:41:06.417Z,32.60
2018-09-04T17:43:33.520Z,33.07
2018-09-04T17:46:00.823Z,34.30
2018-09-04T17:48:28.001Z,31.70
2018-09-04T17:50:55.185Z,29.90
2018-09-04T17:53:26.452Z,29.07
2018-09-04T17:55:53.688Z,30.10
2018-09-04T17:58:20.919Z,29.80
2018-09-04T18:00:48.175Z,29.10
2018-09-04T18:03:15.366Z,29.47
2018-09-04T18:05:42.535Z,33.13
2018-09-04T18:08:09.853Z,36.93
2018-09-04T18:10:37.121Z,31.90
2018-09-04T18:13:04.313Z,28.07
2018-09-04T18:15:31.608Z,28.23
2018-09-04T18:17:58.801Z,28.57
2018-09-04T18:20:25.973Z,29.90
2018-09-04T18:22:53.256Z,33.47
2018-09-04T18:25:21.201Z,30.53
2018-09-04T18:27:48.318Z,33.87
2018-09-04T18:30:15.484Z,30.13
2018-09-04T18:32:42.637Z,33.03
2018-09-04T18:35:09.795Z,29.17
2018-09-04T18:37:37.001Z,31.30
2018-09-04T18:40:04.559Z,31.03
2018-09-04T18:42:31.769Z,31.47
2018-09-04T18:44:58.892Z,31.03
2018-09-04T18:47:25.989Z,32.53
2018-09-04T18:49:53.232Z,32.97
2018-09-04T18:52:20.466Z,29.33
2018-09-04T18:54:47.641Z,33.70
2018-09-04T18:57:14.848Z,35.13
2018-09-04T18:59:41.981Z,31.40
2018-09-04T19:02:09.160Z,30.90
2018-09-04T19:04:36.310Z,32.37
2018-09-04T19:07:03.453Z,35.23
2018-09-04T19:09:30.637Z,39.43
2018-09-04T19:12:04.752Z,43.27
2018-09-04T19:14:32.041Z,37.17
2018-09-04T19:16:59.351Z,37.73
2018-09-04T19:19:27.077Z,35.10
2018-09-04T19:21:54.220Z,34.07
2018-09-04T19:24:21.484Z,31.40
2018-09-04T19:26:48.693Z,34.47
2018-09-04T19:29:15.937Z,32.67
2018-09-04T19:31:43.232Z,32.13
2018-09-04T19:34:10.347Z,34.20
2018-09-04T19:36:37.724Z,33.93
2018-09-04T19:39:06.792Z,34.03
2018-09-04T19:41:34.065Z,34.47
2018-09-04T19:46:35.145Z,33.50
2018-09-04T19:49:02.382Z,30.97
2018-09-04T19:51:29.602Z,28.47
2018-09-04T19:53:56.769Z,30.03
2018-09-04T19:56:27.012Z,29.53
2018-09-04T19:58:54.213Z,28.47
2018-09-04T20:01:22.102Z,29.43
2018-09-04T20:03:50.597Z,30.93
2018-09-04T20:06:17.956Z,29.70
2018-09-04T20:08:45.112Z,29.10
2018-09-04T20:11:12.293Z,32.90
2018-09-04T20:13:39.444Z,34.77
2018-09-04T20:16:06.659Z,33.10
2018-09-04T20:18:34.297Z,36.97
2018-09-04T20:21:01.511Z,34.57
2018-09-04T20:23:28.660Z,30.07
2018-09-04T20:25:55.945Z,31.80
2018-09-04T20:28:23.112Z,31.17
2018-09-04T20:30:50.395Z,32.27
2018-09-04T20:33:18.352Z,33.97
2018-09-04T20:35:45.484Z,33.13
2018-09-04T20:38:12.577Z,33.43
2018-09-04T20:40:39.780Z,31.63
2018-09-04T20:43:06.900Z,32.83
2018-09-04T20:45:34.121Z,30.93
2018-09-04T20:48:01.429Z,32.23
2018-09-04T20:50:28.869Z,31.53
2018-09-04T20:53:02.934Z,31.20
2018-09-04T20:55:30.026Z,30.50
2018-09-04T20:58:08.610Z,29.90
2018-09-04T21:00:47.228Z,30.47
2018-09-04T21:03:25.999Z,31.50
2018-09-04T21:06:04.780Z,31.43
2018-09-04T21:08:58.573Z,30.53
2018-09-04T21:11:25.768Z,29.80
2018-09-04T21:13:52.905Z,29.90
2018-09-04T21:16:20.013Z,27.70
2018-09-04T21:18:47.526Z,30.53
2018-09-04T21:21:14.791Z,26.83
2018-09-04T21:23:41.933Z,27.50
2018-09-04T21:26:09.163Z,28.73
2018-09-04T21:28:36.956Z,29.20
2018-09-04T21:31:04.302Z,29.70
2018-09-04T21:33:31.477Z,26.13
2018-09-04T21:35:58.585Z,25.67
2018-09-04T21:38:25.816Z,26.27
2018-09-04T21:40:53.048Z,25.17
2018-09-04T21:43:20.205Z,25.37
2018-09-04T21:45:47.496Z,25.27
2018-09-04T21:48:15.297Z,28.47
2018-09-04T21:50:42.432Z,27.00
2018-09-04T21:53:09.732Z,25.67
2018-09-04T21:55:36.836Z,27.03
2018-09-04T21:58:04.253Z,28.17
2018-09-04T22:00:31.639Z,26.97
2018-09-04T22:02:58.817Z,25.17
2018-09-04T22:05:26.529Z,24.13
2018-09-04T22:07:54.696Z,26.23
2018-09-04T22:10:21.905Z,26.13
2018-09-04T22:12:49.024Z,26.47
2018-09-04T22:15:16.448Z,25.17
2018-09-04T22:17:43.589Z,28.03
2018-09-04T22:20:10.701Z,24.50
2018-09-04T22:22:37.817Z,24.97
2018-09-04T22:25:05.054Z,23.13
2018-09-04T22:27:32.276Z,22.53
2018-09-04T22:29:59.489Z,23.33
2018-09-04T22:32:26.745Z,25.17
2018-09-04T22:34:53.912Z,25.27
2018-09-04T22:37:21.030Z,24.97
2018-09-04T22:39:48.143Z,25.07
2018-09-04T22:42:15.412Z,26.60
2018-09-04T22:44:42.528Z,22.73
2018-09-04T22:47:09.673Z,28.43
2018-09-04T22:49:37.440Z,24.20
2018-09-04T22:52:04.604Z,23.10
2018-09-04T22:54:31.732Z,23.33
2018-09-04T22:56:58.953Z,24.10
2018-09-04T22:59:26.852Z,21.50
2018-09-04T23:01:54.045Z,25.10
2018-09-04T23:04:21.520Z,25.40
2018-09-04T23:06:48.709Z,25.53
2018-09-04T23:09:15.821Z,26.90
2018-09-04T23:11:43.129Z,23.77
2018-09-04T23:14:10.325Z,23.33
2018-09-04T23:16:37.472Z,22.50
2018-09-04T23:19:04.680Z,22.80
2018-09-04T23:21:31.816Z,23.90
2018-09-04T23:23:59.090Z,24.60
2018-09-04T23:26:26.269Z,24.20
2018-09-04T23:28:53.365Z,23.17
2018-09-04T23:31:20.678Z,24.30
2018-09-04T23:33:48.152Z,22.10
2018-09-04T23:36:15.317Z,21.70
2018-09-04T23:38:42.567Z,24.03
2018-09-04T23:41:09.667Z,26.87
2018-09-04T23:43:36.835Z,21.20
2018-09-04T23:46:04.001Z,21.23
2018-09-04T23:48:31.082Z,21.40
2018-09-04T23:51:00.004Z,19.27
2018-09-04T23:53:27.324Z,22.77
2018-09-04T23:55:54.472Z,23.37
2018-09-04T23:58:21.615Z,21.10
